Weather observations for the past three days for
Orange, Orange County Airport
Metric (Imperial)
Date Time (cdt) Wind (kph) Vis. (km) Weather Sky Cond. Temperature (ºC) Relative Humidity Wind Chill (°C) Heat Index (°C) Pressure Precipitation (cm)
Air Dwpt 6 hour altimeter (cm) sea level (mb) 1 hr 3 hr 6 hr
Max. Min.
08 04:55 Calm 16.09 Overcast OVC012 17.9 16 89% 76.07 0.0
08 04:35 NE 6 16.09 Overcast OVC014 18.1 16 88% 76.07 0.0
08 04:15 NE 7 16.09 Overcast OVC014 18.6 15.9 84% 76.07 0.0
08 03:55 Calm 16.09 Overcast OVC016 19 15.7 81% 76.05 0.0
08 03:35 NE 6 16.09 Overcast OVC018 19 15.6 81% 76.02 0.0
08 03:15 Calm 16.09 Overcast OVC018 19.3 15.8 80% 76.05 0.0
08 02:55 E 11 16.09 Overcast OVC018 19.5 15.8 79% 76.02 0.0
08 02:35 NE 9 16.09 Overcast OVC016 19.5 15.7 79% 76.05 0.0
08 02:15 E 15 16.09 Overcast OVC018 19.6 15.6 78% 76.05 0.0
08 01:55 NE 11 16.09 Overcast OVC020 19.6 15.6 78% 76.07 0.0
08 01:35 E 11 16.09 Overcast OVC024 19.7 15.5 77% 76.07 0.0
08 01:15 E 11 16.09 Mostly Cloudy BKN024 20 15.6 76% 76.07 0.0
08 00:55 E 9 16.09 Partly Cloudy SCT024 19.7 16.2 24.1 19.7 80% 76.07 0.0
08 00:15 E 15 16.09 Fair CLR 20 16.7 81% 76.07 0.0
07 23:55 E 9 16.09 Fair CLR 20.3 16.7 80% 76.15 0.0
07 23:35 NE 13 16.09 Fair CLR 20.5 16.6 78% 76.15 0.0
07 23:15 E 9 16.09 Fair CLR 20.5 16.6 78% 76.17 0.0
07 22:55 E 11 16.09 Fair CLR 20.7 16.7 78% 76.17 0.0
07 22:35 E 17 16.09 Fair CLR 20.6 16.6 78% 76.15 0.0
07 22:15 NE 11 16.09 Fair CLR 21 16.6 76% 76.17 0.0
07 21:55 NE 7 16.09 Fair CLR 21.2 17.5 80% 76.15 0.0
07 21:35 NE 7 16.09 Fair CLR 21.2 17.7 81% 76.15 0.0
07 21:15 Calm 16.09 Fair CLR 21.2 18 82% 76.12 0.0
07 20:55 Calm 16.09 Fair CLR 21.7 18 80% 76.1 0.0
07 20:35 NE 7 16.09 Fair CLR 22 18 78% 76.07 0.0
07 20:15 NE 9 16.09 Fair CLR 22.1 18 78% 76.07 0.0
07 19:55 NE 6 16.09 Fair CLR 22.6 17.8 74% 76.1 0.0
07 19:35 NE 6 16.09 Fair CLR 23.2 17.9 72% 76.07 0.0
07 19:15 NE 13 16.09 Fair CLR 23.6 18.1 71% 76.07 0.0
07 18:55 NE 11 16.09 Fair CLR 24.2 18.1 25.4 22.7 69% 25 76.07 0.0
07 18:35 NE 9 16.09 Fair CLR 24 18.1 70% 25 76.07 0.0
07 18:15 N 9 16.09 Fair CLR 24.8 18.3 67% 26 76.07 0.0
07 17:55 NE 13 16.09 Partly Cloudy SCT050 24.7 18.4 68% 26 76.07 0.0
07 17:35 NE 13 16.09 Overcast OVC050 24.6 18.2 68% 26 76.07 0.0
07 17:15 NE 13 16.09 Mostly Cloudy BKN048 24.9 18.2 66% 26 76.07 0.0
07 16:55 N 9 16.09 Overcast OVC048 25.1 18 65% 26 76.07 0.0
07 16:35 NE 11 16.09 NULL NULL 24.7 18 66% 26 76.07 0.0
07 16:15 NE 11 16.09 Overcast OVC047 24.5 17.8 66% 26 76.1 0.0
07 15:55 NE 15 16.09 Overcast OVC047 24.6 17.8 66% 26 76.1 0.0
07 15:35 NE 11 16.09 Overcast OVC047 24.6 17.6 65% 26 76.1 0.0
07 15:15 N 11 16.09 Overcast OVC047 24 17.3 66% 25 76.15 0.0
07 14:55 NE 9 16.09 Partly Cloudy SCT049 24.2 17.2 65% 25 76.15 0.0
07 14:35 N 7 16.09 Fair CLR 24.2 17.4 66% 25 76.15 0.0
07 14:15 NE 19 16.09 Fair CLR 23.8 17.2 67% 76.17 0.0
07 13:55 N 13 16.09 Fair CLR 23.3 17.3 69% 76.17 0.0
07 13:35 N 11 16.09 Fair CLR 23.3 17.2 69% 76.17 0.0
07 13:15 NE 15 G 26 16.09 Fair CLR 23 16.9 69% 76.2 0.0
07 12:55 NE 13 16.09 Fair CLR 22.5 16.9 22.5 15.8 71% 76.2 0.0
07 12:35 NE 15 16.09 Partly Cloudy SCT049 22 16.5 71% 76.2 0.0
07 12:15 N 9 16.09 Overcast SCT016 OVC049 20.3 16.1 77% 76.23 0.0
07 11:55 NE 13 16.09 Overcast SCT014 OVC047 19.9 15.8 77% 76.23 0.0
07 11:35 N 9 16.09 Overcast BKN012 OVC047 19.1 15.3 79% 76.25 0.0
07 11:15 N 13 16.09 Overcast OVC012 19.4 15.4 78% 76.23 0.0
07 10:55 N 15 16.09 Overcast OVC010 18.1 15.1 83% 76.23 0.0
07 10:35 N 11 16.09 Overcast OVC010 17.9 14.7 82% 76.25 0.0
07 10:15 N 11 16.09 Overcast OVC010 17.1 14.6 85% 76.23 0.0
07 09:55 NE 13 16.09 Overcast OVC008 16.4 14.4 88% 76.25 0.0
07 09:35 N 9 11.27 Overcast OVC008 16.2 14.4 89% 76.28 0.0
07 09:15 N 9 11.27 Overcast OVC008 16.1 14.4 90% 76.28 0.0
07 08:55 N 9 11.27 Overcast OVC008 16.1 14.3 89% 76.28 0.0
07 08:35 N 11 16.09 Overcast OVC008 16.1 14.3 89% 76.23 0.0
07 08:15 N 9 16.09 Overcast OVC008 16 14.2 89% 76.23 0.0
07 07:55 N 9 16.09 Overcast OVC010 16 14.1 89% 76.2 0.0
07 07:35 NE 11 16.09 Overcast BKN010 OVC027 16 14.1 89% 76.2 0.0
07 07:15 NE 11 16.09 Overcast BKN008 OVC027 16 14.3 90% 76.15 0.0
07 06:55 N 9 16.09 Overcast SCT005 OVC008 15.8 14.5 24.2 15.8 92% 76.15 0.0
07 06:35 N 9 16.09 Overcast BKN006 OVC009 15.9 14.9 94% 76.12 0.0
07 06:15 NE 13 16.09 Overcast OVC006 16 15 94% 76.1 0.0
07 05:55 N 9 11.27 Overcast OVC006 16.1 15.1 94% 76.1 0.0
07 05:35 N 9 11.27 Overcast OVC006 16.3 15.4 94% 76.1 0.0
07 05:15 N 9 6.44 Overcast OVC006 16.7 15.8 94% 76.1 0.0
07 04:55 N 13 8.05 Overcast OVC006 17 16 94% 76.07 0.0
07 04:35 N 11 11.27 Overcast OVC006 17.1 16.1 94% 76.05 0.0
07 04:15 N 13 11.27 Overcast OVC006 17.3 16.5 95% 76.02 0.0
07 03:55 N 19 G 30 8.05 Overcast OVC004 17.7 16.9 95% 76.02 0.0
07 03:35 N 11 6.44 Overcast OVC004 18 17.2 95% 76 0.0
07 03:15 N 7 8.05 Overcast OVC004 18.5 17.8 96% 76 0.0
07 02:55 N 11 8.05 Overcast OVC004 18.7 18 96% 76 0.0
07 02:35 N 9 8.05 Overcast OVC004 19.2 18.5 96% 76 0.0
07 02:15 N 9 8.05 Overcast OVC004 19.6 19 96% 76 0.0
07 01:55 N 11 6.44 Overcast OVC004 20 19.2 95% 75.97 0.0
07 01:35 N 11 6.44 Overcast BKN006 OVC009 20.3 19.5 95% 76 0.0
07 01:15 N 9 6.44 Overcast OVC006 21.1 20.1 94% 75.97 0.0
07 00:55 N 13 8.05 Overcast OVC006 24.6 23.8 26.1 24.4 95% 24 75.95 0.0
07 00:35 Calm 8.05 Overcast OVC006 24.7 23.9 95% 25 75.95 0.0
06 23:55 Calm 6.44 Mostly Cloudy BKN006 BKN015 24.4 23.6 95% 24 75.95 0.0
06 23:35 Calm 8.05 Overcast OVC006 24.7 23.8 95% 25 75.95 0.0
06 23:15 Calm 8.05 Overcast OVC006 24.8 23.8 94% 25 75.92 0.0
06 22:55 Calm 8.05 Overcast OVC006 25 24 94% 26 75.92 0.0
06 22:35 Calm 8.05 Overcast BKN006 OVC015 25 24 94% 26 75.9 0.0
06 22:15 Calm 8.05 Overcast BKN006 OVC015 25 24 94% 26 75.9 0.0
06 21:35 Calm 8.05 Partly Cloudy SCT006 SCT065 25 23.8 93% 26 75.87 0.0
06 21:15 Calm 8.05 Partly Cloudy SCT027 25 23.7 93% 26 75.84 0.0
06 20:55 S 9 8.05 Overcast SCT008 SCT012 OVC027 25.3 23.8 91% 26 75.82 0.0
06 20:35 S 11 11.27 Overcast BKN008 OVC018 25.5 23.8 90% 27 75.82 0.0
06 20:15 S 11 11.27 Overcast BKN008 OVC016 25.5 23.8 90% 27 75.79 0.0
06 19:55 S 9 11.27 Overcast OVC008 25.6 23.8 90% 27 75.79 0.0
06 19:35 SW 7 8.05 Overcast OVC010 25.7 23.7 89% 27 75.79 0.0
06 19:15 S 9 8.05 Overcast OVC012 26 23.8 88% 28 75.77 0.0
06 18:55 S 11 11.27 Overcast BKN015 OVC020 26.1 23.7 28.5 26.1 87% 28 75.74 0.0
06 18:35 S 15 11.27 Overcast BKN015 BKN022 OVC029 26.5 23.8 85% 29 75.74 0.0
06 18:15 S 17 11.27 Overcast SCT013 BKN018 OVC027 26.7 23.7 84% 29 75.74 0.0
06 17:55 S 13 11.27 Mostly Cloudy SCT013 BKN028 27.2 23.9 82% 30 75.74 0.0
06 17:35 S 11 11.27 Partly Cloudy SCT013 27.2 23.6 81% 30 75.74 0.0
06 16:55 S 17 G 30 11.27 Partly Cloudy SCT036 28.2 23.6 76% 32 75.74 0.0
06 16:35 S 19 16.09 Fair CLR 28.5 23.9 76% 33 75.74 0.0
06 16:15 S 17 16.09 Fair CLR 28 23.6 77% 32 75.74 0.0
06 15:55 S 20 16.09 Partly Cloudy SCT043 27.9 23.5 77% 31 75.74 0.0
06 15:35 S 15 11.27 Partly Cloudy SCT015 27.7 23.5 78% 31 75.77 0.0
06 15:15 S 19 16.09 Mostly Cloudy BKN015 28.3 23.8 77% 32 75.79 0.0
06 14:55 S 19 11.27 Partly Cloudy SCT015 SCT043 27.6 23.4 78% 31 75.82 0.0
06 14:35 S 20 11.27 Mostly Cloudy BKN015 27.7 23.6 78% 31 75.82 0.0
06 14:15 S 19 G 28 11.27 Overcast OVC015 28.4 23.9 77% 33 75.84 0.0
06 13:55 S 19 16.09 Mostly Cloudy BKN015 27.5 23.5 79% 31 75.87 0.0
06 13:35 S 13 11.27 Partly Cloudy SCT046 28.3 23.8 77% 32 75.87 0.0
06 13:15 S 17 16.09 Partly Cloudy SCT014 BKN046 SCT050 27.8 23.7 78% 31 75.9 0.0
06 12:55 S 15 16.09 Partly Cloudy SCT014 SCT048 28 23.7 28.5 23.8 78% 32 75.92 0.0
06 12:35 S 15 G 26 11.27 Partly Cloudy SCT012 SCT043 27.6 23.6 79% 31 75.92 0.0
06 12:15 S 11 11.27 Mostly Cloudy SCT012 SCT035 BKN045 26.9 23.5 82% 30 75.95 0.0
06 11:55 S 19 11.27 Mostly Cloudy BKN012 BKN030 BKN035 26.6 23.5 83% 29 75.95 0.0
06 11:35 S 19 11.27 Overcast BKN012 OVC028 26 23.4 86% 28 75.95 0.0
06 11:15 S 15 G 26 11.27 Overcast BKN012 OVC022 26.2 23.5 85% 28 75.95 0.0
06 10:55 S 15 11.27 Overcast SCT012 BKN020 OVC026 26.4 23.7 85% 29 75.92 0.0
06 10:35 S 13 11.27 Overcast BKN010 BKN016 OVC026 26.5 23.7 85% 29 75.9 0.0
06 10:15 S 17 11.27 Mostly Cloudy BKN008 26.6 23.8 85% 29 75.87 0.0
06 09:55 S 15 11.27 Mostly Cloudy BKN008 BKN035 26.1 23.8 87% 28 75.87 0.0
06 09:35 S 17 8.05 Overcast OVC008 25.5 23.6 89% 27 75.87 0.0
06 09:15 S 15 11.27 Overcast OVC006 25.4 23.7 90% 27 75.87 0.0
06 08:55 S 15 8.05 Overcast OVC006 25.1 23.6 91% 26 75.87 0.0
06 08:35 S 9 8.05 Overcast BKN006 BKN011 OVC055 24.8 23.5 93% 25 75.87 0.0
06 08:15 S 9 8.05 Overcast OVC006 24.7 23.5 93% 25 75.87 0.0
06 07:55 S 9 8.05 Overcast OVC006 24.5 23.4 94% 24 75.87 0.0
06 07:15 S 7 8.05 Mostly Cloudy BKN006 SCT035 BKN042 24 23.1 95% 23 75.82 0.0
06 06:55 S 7 6.44 Mostly Cloudy SCT006 SCT012 BKN042 23.8 23 24 23.6 95% 75.82 0.0
06 06:35 SE 7 8.05 Mostly Cloudy SCT006 SCT012 BKN044 23.6 22.7 95% 75.79 0.0
06 05:55 S 6 8.05 Overcast BKN006 OVC010 23.9 22.9 94% 23 75.79 0.0
06 05:35 S 7 8.05 Overcast BKN006 BKN014 OVC042 23.8 22.8 94% 75.77 0.0
06 05:15 S 7 11.27 Overcast BKN006 OVC014 23.8 22.8 94% 75.77 0.0
06 04:55 S 7 11.27 Overcast OVC008 23.8 22.8 94% 75.79 0.0
06 04:35 S 9 11.27 Overcast BKN008 BKN015 OVC039 23.8 22.8 94% 75.79 0.0
06 04:15 S 9 11.27 Overcast BKN006 BKN014 OVC039 23.8 22.8 94% 75.79 0.0
06 03:55 S 7 8.05 Overcast OVC006 23.8 22.7 94% 75.79 0.0
06 03:35 S 7 11.27 Overcast OVC006 23.8 22.7 94% 75.79 0.0
06 03:15 S 7 11.27 Overcast OVC008 23.8 22.6 93% 75.82 0.0
06 02:55 S 7 11.27 Overcast OVC008 23.8 22.6 93% 75.82 0.0
06 02:35 S 6 11.27 Overcast OVC008 23.8 22.6 93% 75.84 0.0
06 02:15 S 9 11.27 Overcast BKN008 BKN014 OVC038 23.8 22.5 92% 75.82 0.0
06 01:55 S 7 11.27 Overcast SCT010 BKN014 OVC038 23.8 22.5 92% 75.84 0.0
06 01:35 S 11 11.27 Overcast BKN010 BKN014 OVC040 23.8 22.5 92% 75.82 0.0
06 01:15 S 9 11.27 Overcast OVC010 24 22.5 91% 23 75.82 0.0
06 00:55 S 11 11.27 Overcast BKN010 OVC017 24 22.4 24.8 23.8 91% 24 75.84 0.0
06 00:35 S 11 11.27 Overcast BKN010 OVC019 24 22.3 90% 24 75.84 0.0
06 00:15 S 15 11.27 Overcast BKN012 OVC017 24 22.5 91% 23 75.84 0.0
05 23:55 S 15 11.27 Overcast BKN010 OVC013 24 22.5 91% 23 75.84 0.0
05 23:35 S 17 11.27 Overcast OVC010 24 22.5 91% 23 75.84 0.0
05 23:15 S 13 11.27 Overcast OVC012 23.8 22.3 91% 75.84 0.0
05 22:55 S 13 11.27 Overcast BKN014 OVC019 24.1 22.5 91% 24 75.84 0.0
05 22:35 S 17 11.27 Overcast OVC012 24.1 22.5 91% 24 75.82 0.0
05 22:15 S 15 11.27 Overcast OVC012 24 22.5 91% 23 75.82 0.0
05 21:35 S 13 11.27 Overcast OVC010 23.8 22.4 92% 75.77 0.0
05 21:15 S 13 11.27 Overcast BKN010 BKN015 OVC035 24 22.5 91% 23 75.77 0.0
05 20:55 S 15 11.27 Mostly Cloudy BKN012 BKN032 24 22.5 91% 23 75.74 0.0
05 20:35 S 17 11.27 Overcast BKN010 OVC018 24.1 22.5 91% 24 75.74 0.0
05 20:15 S 15 11.27 Overcast BKN010 OVC022 24.1 22.5 91% 24 75.74 0.0
05 19:55 S 15 11.27 Overcast BKN012 BKN019 OVC030 24.3 22.5 90% 24 75.72 0.0
05 19:35 S 13 8.05 Overcast SCT010 BKN031 OVC039 24.2 22.5 90% 24 75.69 0.0
05 19:15 S 15 11.27 Overcast SCT022 BKN036 OVC043 24.7 22.5 88% 25 75.69 0.0
05 18:55 S 19 11.27 Overcast SCT018 SCT026 OVC041 24.8 22.3 26.2 24.7 86% 25 75.72 0.0
05 18:35 S 19 G 30 11.27 Overcast SCT017 SCT030 OVC040 25 22.4 86% 26 75.69 0.0
05 18:15 S 20 11.27 Overcast BKN017 BKN030 OVC035 25 22.5 86% 26 75.72 0.0
05 17:55 S 17 11.27 Overcast SCT019 OVC034 25 22.5 86% 26 75.72 0.0
05 17:35 S 17 G 30 16.09 Overcast BKN019 OVC032 25.2 22.5 85% 26 75.72 0.0
05 17:15 S 20 G 30 11.27 Overcast BKN017 OVC031 25.3 22.5 85% 26 75.72 0.0
05 16:55 S 19 G 30 11.27 Overcast SCT017 OVC033 25.5 22.5 84% 27 75.72 0.0
05 16:35 S 20 G 30 11.27 Overcast SCT017 BKN033 OVC045 25.5 22.5 84% 27 75.72 0.0
05 16:15 S 19 G 31 16.09 Overcast SCT015 BKN035 OVC047 25.9 22.5 82% 28 75.74 0.0
05 15:55 S 20 G 30 16.09 Overcast OVC028 25.2 22.2 84% 26 75.77 0.0
05 15:35 S 22 G 31 16.09 Overcast BKN028 OVC032 25.5 22.2 82% 27 75.79 0.0
05 15:15 S 24 G 33 16.09 Overcast BKN030 OVC047 25.6 22 81% 27 75.79 0.0
05 14:35 S 15 G 31 16.09 Overcast OVC030 25.6 21.7 79% 27 75.82 0.0
05 14:15 SW 22 G 31 16.09 Overcast OVC030 25.5 21.6 79% 27 75.82 0.0
05 13:55 SW 22 G 39 16.09 Overcast OVC034 25.5 21.3 78% 27 75.84 0.0
05 13:35 S 24 16.09 Overcast OVC034 25.7 21.5 78% 27 75.84 0.0
05 13:15 S 17 G 26 16.09 Overcast SCT018 OVC034 25.7 21.6 78% 27 75.84 0.0
05 12:55 S 22 G 30 16.09 Overcast SCT018 OVC036 25.8 21.6 26.5 22.7 78% 27 75.84 0.0
05 12:35 S 28 G 37 16.09 Overcast SCT018 OVC033 25.7 21.6 78% 27 75.87 0.0
05 12:15 S 28 G 39 16.09 Overcast SCT018 OVC029 25.8 21.5 77% 27 75.87 0.0
05 11:55 S 26 G 37 16.09 Overcast BKN027 OVC032 25.5 21.2 77% 27 75.87 0.0
05 11:35 SW 19 G 37 16.09 Overcast OVC027 25 21 79% 26 75.87 0.0
05 11:15 S 24 G 31 16.09 Overcast OVC029 25.1 20.9 78% 26 75.87 0.0
05 10:55 SW 26 G 35 16.09 Overcast SCT020 OVC031 25.9 20.6 73% 27 75.87 0.0
05 10:35 S 26 G 35 16.09 Overcast SCT017 BKN031 OVC045 26.5 21.4 74% 28 75.84 0.0
05 10:15 S 22 G 31 16.09 Overcast SCT017 BKN036 OVC047 25.6 21 76% 27 75.87 0.0
05 09:55 S 24 G 30 16.09 Overcast SCT019 SCT038 OVC049 25.6 21 76% 27 75.87 0.0
05 09:35 SW 20 G 30 16.09 Mostly Cloudy SCT020 SCT024 BKN034 24.7 20.8 79% 25 75.87 0.0
05 09:15 S 22 16.09 Overcast BKN020 BKN032 OVC049 24.8 20.6 78% 26 75.84 0.0
05 08:55 S 19 16.09 Overcast SCT022 BKN032 OVC049 24.8 21 79% 26 75.87 0.0
05 08:35 S 15 G 30 16.09 Overcast SCT024 OVC032 23.7 20.5 82% 75.84 0.0
05 08:15 S 19 G 26 16.09 Mostly Cloudy BKN034 BKN049 23.6 20.3 82% 75.84 0.0
05 07:55 S 13 16.09 Overcast OVC036 23.5 20.5 83% 75.82 0.0
05 07:35 S 13 16.09 Mostly Cloudy BKN034 23 20.3 85% 75.82 0.0
05 07:15 S 15 16.09 Mostly Cloudy BKN034 22.7 20 85% 75.82 0.0
05 06:55 S 15 16.09 Overcast OVC033 22.7 19.8 22.7 21.6 84% 75.82 0.0
05 06:35 S 15 16.09 Overcast OVC035 22.6 19.6 83% 75.79 0.0
05 06:15 S 11 16.09 Overcast BKN035 OVC042 22.6 19.4 82% 75.79 0.0
05 05:55 S 17 G 28 16.09 Mostly Cloudy BKN037 BKN043 22.5 19.4 83% 75.79 0.0
05 05:35 S 17 16.09 Overcast OVC035 22.7 19.5 82% 75.79 0.0
05 05:15 S 9 16.09 Overcast OVC033 22.7 19.4 82% 75.79 0.0
Date Time (cdt) Wind (kph) Vis. (km) Weather Sky Cond. Air Dwpt Max. Min. Relative Humidity Wind Chill (°C) Heat Index (°C) altimeter (cm) sea level (mb) 1 hr 3 hr 6 hr
6 hour
Temperature (ºC) Pressure Precipitation (cm)